createdAt,value
2022-11-05T00:00:23.410Z,27.90
2022-11-05T00:02:49.853Z,26.80
2022-11-05T00:05:16.397Z,28.20
2022-11-05T00:07:51.659Z,29.40
2022-11-05T00:10:22.326Z,26.40
2022-11-05T00:12:49.249Z,28.00
2022-11-05T00:15:15.839Z,33.40
2022-11-05T00:17:43.044Z,27.70
2022-11-05T00:20:10.711Z,28.30
2022-11-05T00:22:37.392Z,24.10
2022-11-05T00:25:04.800Z,23.00
2022-11-05T00:27:33.494Z,22.30
2022-11-05T00:30:00.340Z,21.50
2022-11-05T00:32:26.882Z,21.70
2022-11-05T00:34:53.625Z,21.50
2022-11-05T00:37:20.170Z,21.20
2022-11-05T00:39:46.811Z,20.00
2022-11-05T00:42:13.364Z,19.40
2022-11-05T00:44:40.002Z,20.50
2022-11-05T00:47:06.540Z,20.30
2022-11-05T00:49:33.080Z,27.30
2022-11-05T00:51:59.927Z,24.60
2022-11-05T00:54:26.469Z,24.70
2022-11-05T00:56:52.904Z,25.40
2022-11-05T00:59:19.352Z,24.80
2022-11-05T01:01:46.363Z,28.20
2022-11-05T01:04:13.160Z,27.20
2022-11-05T01:06:39.590Z,24.80
2022-11-05T01:09:06.068Z,24.10
2022-11-05T01:11:33.033Z,23.60
2022-11-05T01:14:09.995Z,25.50
2022-11-05T01:16:37.622Z,26.50
2022-11-05T01:19:06.174Z,29.10
2022-11-05T01:21:32.761Z,27.90
2022-11-05T01:23:59.802Z,28.30
2022-11-05T01:26:26.780Z,27.00
2022-11-05T01:28:55.206Z,28.00
2022-11-05T01:31:23.109Z,25.80
2022-11-05T01:33:50.549Z,24.40
2022-11-05T01:36:17.625Z,24.90
2022-11-05T01:38:44.369Z,24.30
2022-11-05T01:41:11.530Z,24.40
2022-11-05T01:44:04.178Z,25.10
2022-11-05T01:46:43.825Z,25.30
2022-11-05T01:49:33.685Z,26.10
2022-11-05T01:52:03.860Z,25.90
2022-11-05T01:54:32.965Z,23.60
2022-11-05T01:57:04.342Z,23.60
2022-11-05T01:59:38.823Z,21.70
2022-11-05T02:02:07.792Z,22.20
2022-11-05T02:04:38.676Z,23.00
2022-11-05T02:07:07.985Z,21.20
2022-11-05T02:09:51.256Z,20.40
2022-11-05T02:12:19.163Z,20.00
2022-11-05T02:14:45.590Z,21.30
2022-11-05T02:17:37.566Z,21.50
2022-11-05T02:20:25.689Z,24.00
2022-11-05T02:23:01.641Z,22.20
2022-11-05T02:26:02.489Z,21.80
2022-11-05T02:28:56.782Z,24.40
2022-11-05T02:31:37.859Z,22.10
2022-11-05T02:34:26.175Z,34.00
2022-11-05T02:37:07.185Z,23.10
2022-11-05T02:40:11.171Z,22.70
2022-11-05T02:42:43.068Z,20.60
2022-11-05T02:45:35.620Z,22.10
2022-11-05T02:48:35.341Z,22.50
2022-11-05T02:51:27.278Z,23.40
2022-11-05T02:54:02.116Z,23.10
2022-11-05T02:56:43.010Z,23.30
2022-11-05T02:59:09.524Z,23.10
2022-11-05T03:01:37.678Z,21.70
2022-11-05T03:04:08.510Z,21.40
2022-11-05T03:06:55.879Z,20.20
2022-11-05T03:09:44.123Z,21.20
2022-11-05T03:12:13.643Z,34.00
2022-11-05T03:15:08.066Z,30.90
2022-11-05T03:18:01.009Z,27.00
2022-11-05T03:20:35.932Z,24.20
2022-11-05T03:23:24.587Z,23.50
2022-11-05T03:26:11.652Z,22.50
2022-11-05T03:28:42.987Z,21.60
2022-11-05T03:33:40.811Z,20.80
2022-11-05T03:36:13.650Z,21.20
2022-11-05T03:38:43.776Z,21.00
2022-11-05T03:41:13.777Z,20.20
2022-11-05T03:43:45.253Z,20.40
2022-11-05T03:46:28.264Z,19.70
2022-11-05T03:48:57.767Z,20.00
2022-11-05T03:51:59.566Z,20.00
2022-11-05T03:54:26.411Z,19.00
2022-11-05T03:57:08.870Z,21.30
2022-11-05T03:59:42.434Z,21.80
2022-11-05T04:02:10.846Z,19.90
2022-11-05T04:04:38.175Z,20.50
2022-11-05T04:07:05.050Z,22.70
2022-11-05T04:09:31.974Z,21.80
2022-11-05T04:11:58.615Z,21.40
2022-11-05T04:14:25.570Z,22.50
2022-11-05T04:16:52.667Z,20.60
2022-11-05T04:19:23.700Z,21.20
2022-11-05T04:21:52.668Z,21.50
2022-11-05T04:24:19.478Z,21.50
2022-11-05T04:26:46.111Z,21.60
2022-11-05T04:29:13.182Z,22.40
2022-11-05T04:31:39.861Z,23.00
2022-11-05T04:34:09.126Z,21.70
2022-11-05T04:36:35.716Z,22.30
2022-11-05T04:39:02.449Z,23.20
2022-11-05T04:41:29.187Z,24.90
2022-11-05T04:43:55.736Z,25.30
2022-11-05T04:46:22.168Z,25.40
2022-11-05T04:48:48.870Z,26.10
2022-11-05T04:51:15.551Z,26.90
2022-11-05T04:53:41.984Z,27.30
2022-11-05T04:56:12.659Z,26.80
2022-11-05T04:58:41.018Z,28.40
2022-11-05T05:01:15.330Z,28.20
2022-11-05T05:03:42.601Z,27.00
2022-11-05T05:06:09.615Z,27.70
2022-11-05T05:08:36.196Z,29.00
2022-11-05T05:11:05.192Z,31.30
2022-11-05T05:13:31.835Z,31.00
2022-11-05T05:15:58.975Z,33.30
2022-11-05T05:18:25.885Z,33.60
2022-11-05T05:20:58.043Z,34.50
2022-11-05T05:23:24.554Z,34.80
2022-11-05T05:25:51.095Z,34.80
2022-11-05T05:28:17.536Z,34.70
2022-11-05T05:30:44.183Z,37.30
2022-11-05T05:33:11.122Z,36.60
2022-11-05T05:35:37.878Z,37.60
2022-11-05T05:38:04.419Z,39.70
2022-11-05T05:40:30.965Z,40.10
2022-11-05T05:42:57.463Z,39.80
2022-11-05T05:45:23.943Z,39.90
2022-11-05T05:47:50.587Z,39.70
2022-11-05T05:50:17.043Z,39.60
2022-11-05T05:52:43.471Z,39.60
2022-11-05T05:55:10.207Z,40.10
2022-11-05T05:57:36.651Z,38.80
2022-11-05T06:00:04.900Z,40.00
2022-11-05T06:02:31.559Z,39.60
2022-11-05T06:04:58.516Z,39.60
2022-11-05T06:07:25.056Z,35.90
2022-11-05T06:09:51.699Z,36.30
2022-11-05T06:12:18.159Z,34.40
2022-11-05T06:14:44.685Z,34.40
2022-11-05T06:17:11.214Z,31.70
2022-11-05T06:19:37.666Z,32.10
2022-11-05T06:22:04.212Z,31.10
2022-11-05T06:24:30.768Z,31.60
2022-11-05T06:26:57.597Z,31.60
2022-11-05T06:29:24.143Z,30.10
2022-11-05T06:31:50.680Z,29.90
2022-11-05T06:34:17.216Z,25.40
2022-11-05T06:36:43.961Z,23.70
2022-11-05T06:39:11.370Z,22.40
2022-11-05T06:41:56.968Z,21.50
2022-11-05T06:44:24.368Z,22.40
2022-11-05T06:46:50.911Z,21.40
2022-11-05T06:49:17.347Z,19.00
2022-11-05T06:51:43.889Z,16.40
2022-11-05T06:54:10.421Z,14.10
2022-11-05T06:56:36.975Z,12.30
2022-11-05T06:59:03.512Z,11.40
2022-11-05T07:01:30.056Z,12.70
2022-11-05T07:03:56.870Z,11.80
2022-11-05T07:06:23.468Z,13.40
2022-11-05T07:08:49.928Z,12.40
2022-11-05T07:11:16.534Z,12.10
2022-11-05T07:13:43.001Z,10.70
2022-11-05T07:16:09.549Z,10.30
2022-11-05T07:18:36.398Z,10.30
2022-11-05T07:21:03.606Z,10.30
2022-11-05T07:23:30.098Z,11.40
2022-11-05T07:25:56.584Z,9.70
2022-11-05T07:28:23.164Z,9.30
2022-11-05T07:30:49.582Z,10.10
2022-11-05T07:33:16.056Z,9.60
2022-11-05T07:35:42.851Z,10.60
2022-11-05T07:38:09.602Z,9.60
2022-11-05T07:40:36.103Z,12.80
2022-11-05T07:43:02.680Z,10.80
2022-11-05T07:45:31.164Z,10.30
2022-11-05T07:48:00.858Z,9.60
2022-11-05T07:50:30.345Z,8.80
2022-11-05T07:53:07.386Z,8.70
2022-11-05T07:55:34.636Z,8.00
2022-11-05T07:58:01.197Z,8.10
2022-11-05T08:00:28.507Z,10.00
2022-11-05T08:03:12.379Z,8.00
2022-11-05T08:05:41.293Z,7.00
2022-11-05T08:08:09.565Z,7.20
2022-11-05T08:10:37.387Z,6.80
2022-11-05T08:13:05.450Z,8.80
2022-11-05T08:15:32.563Z,6.40
2022-11-05T08:18:00.719Z,5.80
2022-11-05T08:20:28.030Z,5.40
2022-11-05T08:22:54.863Z,5.10
2022-11-05T08:25:21.402Z,5.10
2022-11-05T08:27:47.953Z,5.00
2022-11-05T08:30:14.472Z,4.50
2022-11-05T08:32:41.012Z,3.80
2022-11-05T08:35:07.863Z,5.50
2022-11-05T08:37:34.398Z,4.70
2022-11-05T08:40:00.897Z,5.10
2022-11-05T08:42:27.541Z,6.20
2022-11-05T08:44:53.954Z,7.30
2022-11-05T08:47:20.462Z,7.50
2022-11-05T08:49:46.886Z,7.60
2022-11-05T08:52:13.438Z,8.10
2022-11-05T08:54:40.230Z,7.60
2022-11-05T08:57:06.689Z,8.30
2022-11-05T08:59:33.277Z,9.10
2022-11-05T09:02:02.029Z,8.30
2022-11-05T09:04:28.702Z,7.80
2022-11-05T09:06:55.467Z,7.30
2022-11-05T09:09:22.177Z,7.60
2022-11-05T09:12:11.257Z,8.00
2022-11-05T09:14:35.253Z,7.30
2022-11-05T09:17:01.781Z,6.70
2022-11-05T09:19:28.246Z,6.00
2022-11-05T09:21:54.679Z,5.60
2022-11-05T09:24:21.197Z,7.90
2022-11-05T09:26:47.881Z,7.00
2022-11-05T09:29:14.723Z,6.00
2022-11-05T09:31:41.741Z,7.60
2022-11-05T09:34:08.281Z,5.90
2022-11-05T09:36:34.923Z,5.90
2022-11-05T09:39:01.353Z,6.40
2022-11-05T09:41:36.308Z,6.50
2022-11-05T09:44:14.007Z,6.70
2022-11-05T09:46:49.765Z,5.80
2022-11-05T09:49:41.292Z,4.90
2022-11-05T09:54:47.081Z,5.40
2022-11-05T09:57:20.104Z,5.00
2022-11-05T09:59:51.033Z,5.60
2022-11-05T10:02:42.733Z,5.70
2022-11-05T10:05:12.271Z,6.80
2022-11-05T10:07:54.455Z,5.90
2022-11-05T10:10:23.881Z,6.70
2022-11-05T10:12:54.720Z,7.10
2022-11-05T10:15:27.607Z,7.30
2022-11-05T10:17:59.706Z,5.90
2022-11-05T10:20:37.684Z,6.10
2022-11-05T10:23:19.213Z,5.40
2022-11-05T10:26:07.499Z,4.80
2022-11-05T10:28:35.138Z,5.20
2022-11-05T10:31:06.157Z,4.90
2022-11-05T10:33:45.918Z,5.40
2022-11-05T10:36:20.871Z,6.20
2022-11-05T10:38:47.576Z,6.30
2022-11-05T10:41:26.270Z,4.50
2022-11-05T10:44:05.331Z,4.00
2022-11-05T10:46:44.283Z,4.80
2022-11-05T10:49:22.885Z,8.90
2022-11-05T10:51:55.752Z,5.20
2022-11-05T10:54:26.970Z,9.60
2022-11-05T10:59:25.846Z,9.00
2022-11-05T11:01:58.868Z,9.00
2022-11-05T11:04:30.334Z,9.70
2022-11-05T11:06:59.905Z,6.60
2022-11-05T11:09:36.484Z,7.60
2022-11-05T11:12:15.100Z,7.00
2022-11-05T11:14:41.640Z,7.00
2022-11-05T11:17:30.066Z,6.70
2022-11-05T11:20:32.482Z,6.20
2022-11-05T11:23:15.248Z,6.00
2022-11-05T11:25:46.758Z,11.90
2022-11-05T11:28:27.366Z,24.10
2022-11-05T11:31:15.719Z,28.30
2022-11-05T11:33:48.420Z,24.10
2022-11-05T11:36:18.614Z,8.00
2022-11-05T11:38:46.153Z,7.80
2022-11-05T11:41:31.654Z,10.20
2022-11-05T11:44:09.958Z,10.60
2022-11-05T11:46:36.847Z,6.80
2022-11-05T11:49:06.118Z,6.20
2022-11-05T11:51:36.535Z,6.60
2022-11-05T11:54:05.038Z,5.50
2022-11-05T11:56:43.461Z,5.30
2022-11-05T11:59:40.595Z,5.50
2022-11-05T12:02:38.284Z,5.10
2022-11-05T12:05:11.075Z,5.20
2022-11-05T12:07:48.681Z,6.30
2022-11-05T12:10:36.726Z,7.00
2022-11-05T12:13:21.598Z,7.70
2022-11-05T12:15:57.761Z,7.70
2022-11-05T12:18:53.593Z,6.30
2022-11-05T12:21:41.052Z,7.30
2022-11-05T12:24:29.479Z,7.60
2022-11-05T12:27:22.340Z,7.50
2022-11-05T12:29:59.638Z,7.70
2022-11-05T12:32:36.927Z,9.10
2022-11-05T12:35:27.945Z,10.80
2022-11-05T12:38:06.473Z,9.30
2022-11-05T12:41:01.270Z,8.50
2022-11-05T12:43:50.859Z,10.20
2022-11-05T12:46:37.662Z,12.70
2022-11-05T12:49:24.378Z,12.10
2022-11-05T12:52:07.303Z,12.50
2022-11-05T12:54:39.693Z,11.10
2022-11-05T12:57:11.907Z,12.40
2022-11-05T13:00:13.938Z,12.20
2022-11-05T13:02:58.689Z,13.30
2022-11-05T13:05:36.598Z,11.80
2022-11-05T13:08:18.506Z,14.40
2022-11-05T13:10:54.260Z,16.40
2022-11-05T13:13:45.588Z,18.60
2022-11-05T13:16:35.024Z,17.70
2022-11-05T13:19:17.481Z,15.40
2022-11-05T13:21:50.083Z,11.00
2022-11-05T13:24:22.528Z,11.80
2022-11-05T13:27:07.131Z,10.30
2022-11-05T13:29:53.470Z,11.30
2022-11-05T13:32:32.327Z,11.00
2022-11-05T13:35:02.242Z,11.20
2022-11-05T13:37:34.211Z,9.70
2022-11-05T13:40:07.402Z,12.30
2022-11-05T13:42:44.635Z,13.80
2022-11-05T13:45:17.377Z,15.10
2022-11-05T13:47:50.172Z,15.30
2022-11-05T13:50:38.007Z,14.30
2022-11-05T13:53:31.993Z,18.60
2022-11-05T13:56:33.452Z,20.70
2022-11-05T13:59:34.196Z,17.70
2022-11-05T14:02:05.910Z,16.80
2022-11-05T14:04:39.915Z,12.40
2022-11-05T14:07:31.628Z,12.20
2022-11-05T14:10:01.937Z,13.40
2022-11-05T14:12:35.861Z,10.60
2022-11-05T14:15:16.031Z,22.70
2022-11-05T14:18:03.065Z,8.90
2022-11-05T14:20:32.232Z,19.10
2022-11-05T14:23:40.854Z,16.30
2022-11-05T14:26:20.499Z,31.40
2022-11-05T14:28:50.012Z,21.80
2022-11-05T14:31:19.336Z,18.10
2022-11-05T14:33:55.553Z,18.60
2022-11-05T14:36:21.913Z,17.10
2022-11-05T14:38:51.441Z,16.30
2022-11-05T14:41:19.447Z,15.30
2022-11-05T14:43:57.829Z,24.50
2022-11-05T14:46:25.133Z,34.60
2022-11-05T14:48:58.604Z,29.40
2022-11-05T14:51:35.930Z,28.80
2022-11-05T14:54:20.852Z,49.60
2022-11-05T14:57:05.930Z,27.80
2022-11-05T14:59:35.138Z,25.10
2022-11-05T15:02:09.371Z,30.50
2022-11-05T15:04:38.369Z,37.00
2022-11-05T15:07:04.900Z,25.00
2022-11-05T15:09:40.451Z,30.40
2022-11-05T15:12:32.621Z,26.30
2022-11-05T15:15:02.002Z,24.40
2022-11-05T15:17:38.880Z,24.80
2022-11-05T15:20:15.082Z,30.20
2022-11-05T15:22:45.033Z,29.30
2022-11-05T15:25:19.091Z,30.20
2022-11-05T15:28:01.411Z,36.10
2022-11-05T15:30:28.040Z,33.80
2022-11-05T15:32:54.586Z,34.80
2022-11-05T15:35:27.388Z,38.00
2022-11-05T15:38:01.779Z,42.20
2022-11-05T15:40:32.336Z,41.50
2022-11-05T15:43:16.277Z,38.10
2022-11-05T15:45:43.847Z,38.10
2022-11-05T15:48:16.086Z,35.90
2022-11-05T15:50:42.707Z,32.70
2022-11-05T15:53:44.235Z,30.00
2022-11-05T15:56:11.622Z,31.80
2022-11-05T15:58:53.170Z,34.90
2022-11-05T16:01:22.763Z,39.80
2022-11-05T16:03:52.697Z,35.70
2022-11-05T16:06:19.446Z,40.50
2022-11-05T16:08:48.653Z,41.00
2022-11-05T16:11:24.798Z,43.40
2022-11-05T16:13:52.278Z,47.30
2022-11-05T16:16:18.717Z,43.90
2022-11-05T16:18:45.479Z,47.50
2022-11-05T16:21:20.900Z,44.60
2022-11-05T16:23:57.796Z,48.10
2022-11-05T16:27:02.200Z,45.00
2022-11-05T16:29:26.922Z,40.20
2022-11-05T16:31:56.433Z,40.70
2022-11-05T16:34:38.133Z,38.20
2022-11-05T16:37:07.029Z,35.90
2022-11-05T16:39:33.874Z,35.30
2022-11-05T16:42:00.736Z,34.10
2022-11-05T16:44:27.216Z,33.00
2022-11-05T16:46:53.866Z,36.50
2022-11-05T16:49:20.655Z,35.20
2022-11-05T16:51:47.195Z,35.80
2022-11-05T16:54:13.738Z,33.40
2022-11-05T16:56:40.279Z,34.10
2022-11-05T16:59:08.860Z,35.20
2022-11-05T17:01:40.441Z,32.10
2022-11-05T17:04:11.209Z,33.50
2022-11-05T17:06:37.715Z,33.30
2022-11-05T17:09:04.364Z,36.50
2022-11-05T17:11:30.898Z,36.60
2022-11-05T17:13:57.303Z,41.20
2022-11-05T17:16:23.771Z,51.10
2022-11-05T17:18:50.412Z,65.30
2022-11-05T17:21:16.888Z,75.10
2022-11-05T17:23:43.497Z,61.00
2022-11-05T17:26:12.340Z,51.20
2022-11-05T17:28:40.060Z,62.30
2022-11-05T17:31:09.684Z,65.30
2022-11-05T17:33:36.314Z,67.70
2022-11-05T17:36:11.372Z,57.10
2022-11-05T17:38:37.895Z,56.40
2022-11-05T17:41:15.594Z,57.30
2022-11-05T17:43:42.962Z,65.40
2022-11-05T17:46:12.367Z,58.80
2022-11-05T17:48:39.833Z,59.50
2022-11-05T17:51:11.184Z,52.30
2022-11-05T17:56:11.912Z,49.50
2022-11-05T17:58:39.846Z,41.30
2022-11-05T18:01:08.552Z,50.60
2022-11-05T18:03:35.354Z,41.50
2022-11-05T18:06:06.334Z,46.20
2022-11-05T18:08:33.357Z,48.50
2022-11-05T18:10:59.878Z,47.40
2022-11-05T18:13:26.517Z,53.50
2022-11-05T18:15:54.417Z,52.80
2022-11-05T18:18:22.136Z,46.20
2022-11-05T18:20:48.615Z,49.30
2022-11-05T18:23:15.461Z,51.30
2022-11-05T18:25:43.186Z,54.90
2022-11-05T18:28:09.890Z,51.80
2022-11-05T18:30:38.578Z,47.30
2022-11-05T18:33:05.156Z,46.20
2022-11-05T18:35:31.574Z,49.00
2022-11-05T18:37:58.097Z,41.00
2022-11-05T18:40:24.675Z,47.50
2022-11-05T18:42:51.320Z,45.50
2022-11-05T18:45:17.829Z,46.30
2022-11-05T18:47:44.369Z,46.70
2022-11-05T18:50:10.912Z,48.70
2022-11-05T18:52:37.866Z,57.20
2022-11-05T18:55:05.370Z,54.20
2022-11-05T18:57:33.911Z,57.00
2022-11-05T19:00:00.560Z,88.60
2022-11-05T19:02:27.175Z,52.30
2022-11-05T19:05:14.391Z,50.50
2022-11-05T19:07:40.450Z,39.70
2022-11-05T19:10:07.926Z,39.40
2022-11-05T19:12:34.688Z,42.80
2022-11-05T19:15:02.919Z,47.70
2022-11-05T19:17:32.766Z,54.30
2022-11-05T19:19:59.408Z,53.80
2022-11-05T19:22:26.283Z,51.10
2022-11-05T19:24:53.094Z,50.00
2022-11-05T19:27:20.359Z,48.90
2022-11-05T19:29:47.513Z,52.50
2022-11-05T19:32:14.446Z,51.00
2022-11-05T19:34:41.002Z,52.60
2022-11-05T19:37:08.260Z,53.10
2022-11-05T19:39:36.135Z,51.90
2022-11-05T19:42:03.906Z,61.90
2022-11-05T19:44:30.751Z,58.00
2022-11-05T19:46:57.681Z,34.00
2022-11-05T19:49:24.545Z,29.30
2022-11-05T19:51:51.066Z,20.50
2022-11-05T19:54:17.620Z,19.50
2022-11-05T19:56:44.104Z,18.30
2022-11-05T19:59:11.854Z,16.80
2022-11-05T20:01:38.706Z,16.50
2022-11-05T20:04:05.660Z,16.10
2022-11-05T20:06:36.431Z,19.10
2022-11-05T20:09:20.981Z,17.00
2022-11-05T20:11:49.142Z,18.80
2022-11-05T20:14:15.885Z,16.70
2022-11-05T20:16:42.667Z,17.90
2022-11-05T20:19:13.095Z,18.70
2022-11-05T20:21:39.864Z,15.30
2022-11-05T20:24:07.905Z,18.80
2022-11-05T20:26:34.529Z,18.40
2022-11-05T20:29:01.690Z,18.40
2022-11-05T20:31:28.640Z,17.20
2022-11-05T20:33:55.383Z,18.50
2022-11-05T20:36:24.074Z,17.50
2022-11-05T20:38:56.384Z,17.10
2022-11-05T20:41:24.195Z,16.30
2022-11-05T20:43:51.587Z,17.00
2022-11-05T20:46:20.835Z,18.10
2022-11-05T20:48:47.860Z,18.50
2022-11-05T20:51:17.415Z,18.30
2022-11-05T20:53:44.306Z,18.60
2022-11-05T20:56:19.636Z,17.00
2022-11-05T20:58:46.651Z,18.70
2022-11-05T21:01:14.162Z,17.40
2022-11-05T21:03:40.821Z,18.70
2022-11-05T21:06:07.678Z,25.90
2022-11-05T21:08:35.130Z,21.00
2022-11-05T21:11:02.291Z,18.90
2022-11-05T21:13:29.639Z,21.50
2022-11-05T21:15:59.269Z,19.60
2022-11-05T21:18:28.368Z,21.80
2022-11-05T21:20:55.264Z,19.80
2022-11-05T21:23:21.883Z,20.00
2022-11-05T21:25:48.400Z,20.90
2022-11-05T21:28:16.355Z,23.40
2022-11-05T21:30:44.978Z,23.50
2022-11-05T21:33:13.145Z,22.20
2022-11-05T21:35:41.382Z,20.50
2022-11-05T21:38:07.861Z,18.80
2022-11-05T21:40:34.499Z,20.30
2022-11-05T21:43:01.058Z,19.00
2022-11-05T21:45:27.889Z,18.80
2022-11-05T21:47:54.440Z,18.40
2022-11-05T21:50:22.172Z,18.80
2022-11-05T21:52:48.743Z,19.40
2022-11-05T21:55:15.696Z,18.80
2022-11-05T21:57:42.648Z,19.00
2022-11-05T22:00:10.987Z,18.70
2022-11-05T22:02:37.695Z,19.30
2022-11-05T22:05:05.612Z,20.50
2022-11-05T22:07:39.076Z,19.00
2022-11-05T22:10:13.312Z,18.60
2022-11-05T22:12:43.190Z,19.00
2022-11-05T22:15:10.246Z,19.30
2022-11-05T22:17:37.198Z,19.50
2022-11-05T22:20:05.477Z,18.20
2022-11-05T22:22:31.970Z,18.50
2022-11-05T22:24:58.458Z,18.70
2022-11-05T22:27:24.943Z,19.60
2022-11-05T22:29:51.945Z,18.90
2022-11-05T22:32:19.005Z,21.30
2022-11-05T22:34:47.277Z,19.70
2022-11-05T22:37:13.834Z,20.30
2022-11-05T22:39:40.578Z,20.00
2022-11-05T22:42:08.747Z,20.70
2022-11-05T22:44:36.640Z,20.70
2022-11-05T22:47:03.396Z,21.30
2022-11-05T22:49:29.899Z,20.90
2022-11-05T22:51:56.646Z,19.90
2022-11-05T22:54:23.189Z,20.30
2022-11-05T22:56:49.835Z,20.60
2022-11-05T22:59:16.905Z,20.90
2022-11-05T23:01:45.406Z,21.30
2022-11-05T23:04:13.964Z,21.10
2022-11-05T23:06:41.016Z,21.20
2022-11-05T23:09:13.903Z,20.60
2022-11-05T23:11:42.852Z,21.20
2022-11-05T23:14:13.708Z,20.90
2022-11-05T23:16:41.383Z,23.80
2022-11-05T23:19:09.719Z,23.90
2022-11-05T23:21:36.282Z,23.50
2022-11-05T23:24:02.769Z,20.50
2022-11-05T23:26:29.336Z,20.00
2022-11-05T23:28:56.043Z,20.50
2022-11-05T23:31:22.494Z,19.90
2022-11-05T23:33:49.443Z,19.70
2022-11-05T23:36:15.981Z,22.20
2022-11-05T23:38:42.734Z,23.00
2022-11-05T23:41:09.260Z,25.30
2022-11-05T23:43:35.801Z,23.40
2022-11-05T23:46:02.234Z,23.60
2022-11-05T23:48:37.235Z,25.90
2022-11-05T23:51:10.587Z,22.90
2022-11-05T23:53:39.773Z,22.90
2022-11-05T23:56:11.177Z,26.60
